sensor_id;sensor_type;location;lat;lon;timestamp;P1;durP1;ratioP1;P2;durP2;ratioP2
63930;SDS011;50111;48.114;-2.066;2022-08-04T00:04:28;1.77;;;1.20;;
63930;SDS011;50111;48.114;-2.066;2022-08-04T00:07:07;2.13;;;1.40;;
63930;SDS011;50111;48.114;-2.066;2022-08-04T00:09:43;2.45;;;1.50;;
63930;SDS011;50111;48.114;-2.066;2022-08-04T00:12:13;1.77;;;1.40;;
63930;SDS011;50111;48.114;-2.066;2022-08-04T00:14:45;2.08;;;1.40;;
63930;SDS011;50111;48.114;-2.066;2022-08-04T00:17:12;3.05;;;2.00;;
63930;SDS011;50111;48.114;-2.066;2022-08-04T00:19:48;2.65;;;1.60;;
63930;SDS011;50111;48.114;-2.066;2022-08-04T00:22:19;2.40;;;1.70;;
63930;SDS011;50111;48.114;-2.066;2022-08-04T00:24:47;2.15;;;1.65;;
63930;SDS011;50111;48.114;-2.066;2022-08-04T00:27:13;2.67;;;1.83;;
63930;SDS011;50111;48.114;-2.066;2022-08-04T00:29:40;4.00;;;1.60;;
63930;SDS011;50111;48.114;-2.066;2022-08-04T00:32:06;2.03;;;1.40;;
63930;SDS011;50111;48.114;-2.066;2022-08-04T00:34:33;2.25;;;1.60;;
63930;SDS011;50111;48.114;-2.066;2022-08-04T00:36:59;4.05;;;1.70;;
63930;SDS011;50111;48.114;-2.066;2022-08-04T00:39:26;1.90;;;1.50;;
63930;SDS011;50111;48.114;-2.066;2022-08-04T00:47:30;1.60;;;1.30;;
63930;SDS011;50111;48.114;-2.066;2022-08-04T00:50:03;2.72;;;1.50;;
63930;SDS011;50111;48.114;-2.066;2022-08-04T01:00:12;2.90;;;1.70;;
63930;SDS011;50111;48.114;-2.066;2022-08-04T01:07:47;2.20;;;1.63;;
63930;SDS011;50111;48.114;-2.066;2022-08-04T01:12:42;2.47;;;1.58;;
63930;SDS011;50111;48.114;-2.066;2022-08-04T01:15:33;5.88;;;2.60;;
63930;SDS011;50111;48.114;-2.066;2022-08-04T01:20:29;4.22;;;2.70;;
63930;SDS011;50111;48.114;-2.066;2022-08-04T01:25:38;7.50;;;3.13;;
63930;SDS011;50111;48.114;-2.066;2022-08-04T01:30:45;5.57;;;3.30;;
63930;SDS011;50111;48.114;-2.066;2022-08-04T01:33:14;5.18;;;3.10;;
63930;SDS011;50111;48.114;-2.066;2022-08-04T01:35:52;5.32;;;2.85;;
63930;SDS011;50111;48.114;-2.066;2022-08-04T01:40:51;5.45;;;3.00;;
63930;SDS011;50111;48.114;-2.066;2022-08-04T01:43:18;4.15;;;2.78;;
63930;SDS011;50111;48.114;-2.066;2022-08-04T01:45:47;5.00;;;2.92;;
63930;SDS011;50111;48.114;-2.066;2022-08-04T01:48:14;6.88;;;3.70;;
63930;SDS011;50111;48.114;-2.066;2022-08-04T01:50:41;6.05;;;3.47;;
63930;SDS011;50111;48.114;-2.066;2022-08-04T01:53:08;7.45;;;3.63;;
63930;SDS011;50111;48.114;-2.066;2022-08-04T01:55:34;5.97;;;3.45;;
63930;SDS011;50111;48.114;-2.066;2022-08-04T01:58:00;8.98;;;4.32;;
63930;SDS011;50111;48.114;-2.066;2022-08-04T02:00:27;9.15;;;5.00;;
63930;SDS011;50111;48.114;-2.066;2022-08-04T02:02:54;9.48;;;4.57;;
63930;SDS011;50111;48.114;-2.066;2022-08-04T02:05:21;8.60;;;4.35;;
63930;SDS011;50111;48.114;-2.066;2022-08-04T02:12:55;9.15;;;3.70;;
63930;SDS011;50111;48.114;-2.066;2022-08-04T02:20:32;5.97;;;2.97;;
63930;SDS011;50111;48.114;-2.066;2022-08-04T02:23:00;8.40;;;3.28;;
63930;SDS011;50111;48.114;-2.066;2022-08-04T02:25:28;7.10;;;2.80;;
63930;SDS011;50111;48.114;-2.066;2022-08-04T02:30:44;8.80;;;3.08;;
63930;SDS011;50111;48.114;-2.066;2022-08-04T02:33:12;7.57;;;2.70;;
63930;SDS011;50111;48.114;-2.066;2022-08-04T02:35:40;7.45;;;3.00;;
63930;SDS011;50111;48.114;-2.066;2022-08-04T02:38:31;10.65;;;3.10;;
63930;SDS011;50111;48.114;-2.066;2022-08-04T02:41:00;7.38;;;3.35;;
63930;SDS011;50111;48.114;-2.066;2022-08-04T02:43:27;10.32;;;3.42;;
63930;SDS011;50111;48.114;-2.066;2022-08-04T02:45:56;8.63;;;3.83;;
63930;SDS011;50111;48.114;-2.066;2022-08-04T02:48:23;10.30;;;3.40;;
63930;SDS011;50111;48.114;-2.066;2022-08-04T02:50:50;9.00;;;4.30;;
63930;SDS011;50111;48.114;-2.066;2022-08-04T02:53:17;8.63;;;3.88;;
63930;SDS011;50111;48.114;-2.066;2022-08-04T02:55:46;8.25;;;3.72;;
63930;SDS011;50111;48.114;-2.066;2022-08-04T02:58:14;9.15;;;4.07;;
63930;SDS011;50111;48.114;-2.066;2022-08-04T03:00:41;9.63;;;4.30;;
63930;SDS011;50111;48.114;-2.066;2022-08-04T03:11:08;7.18;;;4.25;;
63930;SDS011;50111;48.114;-2.066;2022-08-04T03:16:23;10.30;;;4.45;;
63930;SDS011;50111;48.114;-2.066;2022-08-04T03:24:23;8.85;;;4.55;;
63930;SDS011;50111;48.114;-2.066;2022-08-04T04:19:53;9.23;;;4.68;;
63930;SDS011;50111;48.114;-2.066;2022-08-04T04:40:18;11.05;;;3.78;;
63930;SDS011;50111;48.114;-2.066;2022-08-04T04:53:32;7.68;;;3.58;;
63930;SDS011;50111;48.114;-2.066;2022-08-04T04:58:45;9.55;;;3.78;;
63930;SDS011;50111;48.114;-2.066;2022-08-04T05:06:21;8.15;;;3.97;;
63930;SDS011;50111;48.114;-2.066;2022-08-04T05:14:18;6.57;;;3.75;;
63930;SDS011;50111;48.114;-2.066;2022-08-04T05:16:46;8.30;;;3.78;;
63930;SDS011;50111;48.114;-2.066;2022-08-04T05:22:01;12.73;;;4.07;;
63930;SDS011;50111;48.114;-2.066;2022-08-04T05:24:30;6.53;;;2.63;;
63930;SDS011;50111;48.114;-2.066;2022-08-04T05:26:59;7.90;;;2.95;;
63930;SDS011;50111;48.114;-2.066;2022-08-04T05:31:55;6.78;;;3.20;;
63930;SDS011;50111;48.114;-2.066;2022-08-04T05:34:29;8.02;;;3.05;;
63930;SDS011;50111;48.114;-2.066;2022-08-04T05:36:57;6.72;;;3.05;;
63930;SDS011;50111;48.114;-2.066;2022-08-04T05:39:25;9.50;;;2.80;;
63930;SDS011;50111;48.114;-2.066;2022-08-04T05:41:52;7.03;;;2.88;;
63930;SDS011;50111;48.114;-2.066;2022-08-04T05:44:18;8.38;;;3.17;;
63930;SDS011;50111;48.114;-2.066;2022-08-04T05:46:50;6.85;;;2.80;;
63930;SDS011;50111;48.114;-2.066;2022-08-04T05:49:16;11.05;;;3.03;;
63930;SDS011;50111;48.114;-2.066;2022-08-04T05:51:43;8.05;;;2.95;;
63930;SDS011;50111;48.114;-2.066;2022-08-04T05:54:11;8.98;;;2.80;;
63930;SDS011;50111;48.114;-2.066;2022-08-04T05:56:37;6.97;;;2.90;;
63930;SDS011;50111;48.114;-2.066;2022-08-04T05:59:04;10.30;;;2.90;;
63930;SDS011;50111;48.114;-2.066;2022-08-04T06:01:31;10.20;;;3.13;;
63930;SDS011;50111;48.114;-2.066;2022-08-04T06:03:59;8.40;;;2.65;;
63930;SDS011;50111;48.114;-2.066;2022-08-04T06:06:25;7.07;;;3.25;;
63930;SDS011;50111;48.114;-2.066;2022-08-04T06:08:51;11.95;;;3.00;;
63930;SDS011;50111;48.114;-2.066;2022-08-04T06:11:17;7.30;;;2.72;;
63930;SDS011;50111;48.114;-2.066;2022-08-04T06:13:47;7.30;;;2.58;;
63930;SDS011;50111;48.114;-2.066;2022-08-04T06:16:17;9.88;;;2.90;;
63930;SDS011;50111;48.114;-2.066;2022-08-04T06:18:44;7.80;;;2.30;;
63930;SDS011;50111;48.114;-2.066;2022-08-04T06:21:10;6.68;;;2.25;;
63930;SDS011;50111;48.114;-2.066;2022-08-04T06:23:38;6.38;;;1.70;;
63930;SDS011;50111;48.114;-2.066;2022-08-04T06:26:04;6.20;;;2.42;;
63930;SDS011;50111;48.114;-2.066;2022-08-04T06:28:31;8.10;;;2.35;;
63930;SDS011;50111;48.114;-2.066;2022-08-04T06:30:58;9.88;;;2.38;;
63930;SDS011;50111;48.114;-2.066;2022-08-04T06:33:30;7.88;;;2.20;;
63930;SDS011;50111;48.114;-2.066;2022-08-04T06:36:01;6.47;;;1.80;;
63930;SDS011;50111;48.114;-2.066;2022-08-04T06:38:29;8.02;;;2.38;;
63930;SDS011;50111;48.114;-2.066;2022-08-04T06:40:55;8.82;;;2.38;;
63930;SDS011;50111;48.114;-2.066;2022-08-04T06:43:22;7.25;;;2.25;;
63930;SDS011;50111;48.114;-2.066;2022-08-04T06:45:49;6.18;;;2.00;;
63930;SDS011;50111;48.114;-2.066;2022-08-04T06:48:16;7.97;;;2.33;;
63930;SDS011;50111;48.114;-2.066;2022-08-04T06:50:43;5.70;;;1.92;;
63930;SDS011;50111;48.114;-2.066;2022-08-04T06:53:10;6.32;;;2.30;;
63930;SDS011;50111;48.114;-2.066;2022-08-04T06:55:36;6.82;;;1.98;;
63930;SDS011;50111;48.114;-2.066;2022-08-04T06:58:02;7.03;;;2.15;;
63930;SDS011;50111;48.114;-2.066;2022-08-04T07:00:30;5.78;;;1.80;;
63930;SDS011;50111;48.114;-2.066;2022-08-04T07:02:56;8.20;;;2.53;;
63930;SDS011;50111;48.114;-2.066;2022-08-04T07:05:23;5.85;;;1.75;;
63930;SDS011;50111;48.114;-2.066;2022-08-04T07:07:49;6.88;;;1.77;;
63930;SDS011;50111;48.114;-2.066;2022-08-04T07:10:15;10.82;;;2.35;;
63930;SDS011;50111;48.114;-2.066;2022-08-04T07:12:41;8.20;;;2.08;;
63930;SDS011;50111;48.114;-2.066;2022-08-04T07:15:08;6.88;;;2.35;;
63930;SDS011;50111;48.114;-2.066;2022-08-04T07:17:35;5.68;;;2.10;;
63930;SDS011;50111;48.114;-2.066;2022-08-04T07:20:05;6.88;;;2.35;;
63930;SDS011;50111;48.114;-2.066;2022-08-04T07:22:31;5.22;;;1.83;;
63930;SDS011;50111;48.114;-2.066;2022-08-04T07:24:58;7.10;;;1.83;;
63930;SDS011;50111;48.114;-2.066;2022-08-04T07:27:24;5.63;;;2.00;;
63930;SDS011;50111;48.114;-2.066;2022-08-04T07:29:51;7.53;;;2.10;;
63930;SDS011;50111;48.114;-2.066;2022-08-04T07:32:20;12.23;;;2.15;;
63930;SDS011;50111;48.114;-2.066;2022-08-04T07:37:13;7.70;;;2.10;;
63930;SDS011;50111;48.114;-2.066;2022-08-04T07:39:39;5.22;;;1.80;;
63930;SDS011;50111;48.114;-2.066;2022-08-04T07:42:05;5.75;;;1.73;;
63930;SDS011;50111;48.114;-2.066;2022-08-04T07:44:32;4.70;;;1.90;;
63930;SDS011;50111;48.114;-2.066;2022-08-04T07:46:59;4.90;;;1.67;;
63930;SDS011;50111;48.114;-2.066;2022-08-04T07:49:25;10.77;;;2.40;;
63930;SDS011;50111;48.114;-2.066;2022-08-04T07:51:52;6.20;;;1.88;;
63930;SDS011;50111;48.114;-2.066;2022-08-04T07:54:19;8.45;;;2.03;;
63930;SDS011;50111;48.114;-2.066;2022-08-04T07:56:45;4.80;;;1.80;;
63930;SDS011;50111;48.114;-2.066;2022-08-04T07:59:13;8.30;;;2.00;;
63930;SDS011;50111;48.114;-2.066;2022-08-04T08:01:40;8.15;;;1.88;;
63930;SDS011;50111;48.114;-2.066;2022-08-04T08:04:06;3.40;;;1.63;;
63930;SDS011;50111;48.114;-2.066;2022-08-04T08:06:34;4.63;;;2.03;;
63930;SDS011;50111;48.114;-2.066;2022-08-04T08:09:05;8.10;;;2.33;;
63930;SDS011;50111;48.114;-2.066;2022-08-04T08:11:32;5.93;;;2.08;;
63930;SDS011;50111;48.114;-2.066;2022-08-04T08:13:58;5.47;;;2.20;;
63930;SDS011;50111;48.114;-2.066;2022-08-04T08:16:24;5.35;;;1.90;;
63930;SDS011;50111;48.114;-2.066;2022-08-04T08:18:51;6.57;;;1.70;;
63930;SDS011;50111;48.114;-2.066;2022-08-04T08:21:20;6.78;;;2.30;;
63930;SDS011;50111;48.114;-2.066;2022-08-04T08:23:46;9.60;;;2.47;;
63930;SDS011;50111;48.114;-2.066;2022-08-04T08:26:14;10.00;;;2.03;;
63930;SDS011;50111;48.114;-2.066;2022-08-04T08:28:40;6.18;;;2.08;;
63930;SDS011;50111;48.114;-2.066;2022-08-04T08:31:06;8.23;;;2.00;;
63930;SDS011;50111;48.114;-2.066;2022-08-04T08:33:32;4.47;;;1.95;;
63930;SDS011;50111;48.114;-2.066;2022-08-04T08:36:08;6.70;;;1.70;;
63930;SDS011;50111;48.114;-2.066;2022-08-04T08:38:42;5.75;;;1.85;;
63930;SDS011;50111;48.114;-2.066;2022-08-04T08:49:06;5.70;;;1.70;;
63930;SDS011;50111;48.114;-2.066;2022-08-04T08:51:39;7.47;;;2.22;;
63930;SDS011;50111;48.114;-2.066;2022-08-04T08:57:03;7.45;;;2.00;;
63930;SDS011;50111;48.114;-2.066;2022-08-04T09:17:10;4.78;;;1.80;;
63930;SDS011;50111;48.114;-2.066;2022-08-04T09:19:41;3.80;;;1.60;;
63930;SDS011;50111;48.114;-2.066;2022-08-04T09:30:05;5.55;;;1.58;;
63930;SDS011;50111;48.114;-2.066;2022-08-04T09:48:05;3.95;;;1.42;;
63930;SDS011;50111;48.114;-2.066;2022-08-04T09:50:38;5.38;;;1.63;;
63930;SDS011;50111;48.114;-2.066;2022-08-04T09:53:12;4.57;;;1.80;;
63930;SDS011;50111;48.114;-2.066;2022-08-04T10:01:01;4.80;;;1.35;;
63930;SDS011;50111;48.114;-2.066;2022-08-04T10:03:34;4.53;;;1.60;;
63930;SDS011;50111;48.114;-2.066;2022-08-04T10:14:40;5.05;;;1.98;;
63930;SDS011;50111;48.114;-2.066;2022-08-04T10:23:10;3.53;;;1.52;;
63930;SDS011;50111;48.114;-2.066;2022-08-04T10:25:41;5.25;;;1.60;;
63930;SDS011;50111;48.114;-2.066;2022-08-04T10:28:11;5.93;;;1.65;;
63930;SDS011;50111;48.114;-2.066;2022-08-04T10:30:39;4.85;;;1.80;;
63930;SDS011;50111;48.114;-2.066;2022-08-04T10:33:11;3.90;;;1.33;;
63930;SDS011;50111;48.114;-2.066;2022-08-04T10:35:40;5.25;;;2.08;;
63930;SDS011;50111;48.114;-2.066;2022-08-04T10:38:15;5.05;;;1.83;;
63930;SDS011;50111;48.114;-2.066;2022-08-04T10:41:05;4.85;;;1.50;;
63930;SDS011;50111;48.114;-2.066;2022-08-04T10:43:38;4.45;;;1.42;;
63930;SDS011;50111;48.114;-2.066;2022-08-04T10:46:09;5.15;;;1.58;;
63930;SDS011;50111;48.114;-2.066;2022-08-04T10:48:55;2.83;;;1.60;;
63930;SDS011;50111;48.114;-2.066;2022-08-04T10:51:38;2.80;;;1.80;;
63930;SDS011;50111;48.114;-2.066;2022-08-04T10:54:11;4.82;;;1.40;;
63930;SDS011;50111;48.114;-2.066;2022-08-04T11:00:35;5.78;;;2.05;;
63930;SDS011;50111;48.114;-2.066;2022-08-04T11:05:17;4.65;;;1.70;;
63930;SDS011;50111;48.114;-2.066;2022-08-04T11:07:46;3.03;;;1.30;;
63930;SDS011;50111;48.114;-2.066;2022-08-04T11:10:13;5.03;;;1.75;;
63930;SDS011;50111;48.114;-2.066;2022-08-04T11:12:41;3.58;;;1.35;;
63930;SDS011;50111;48.114;-2.066;2022-08-04T11:15:10;3.70;;;1.73;;
63930;SDS011;50111;48.114;-2.066;2022-08-04T11:17:38;3.33;;;1.60;;
63930;SDS011;50111;48.114;-2.066;2022-08-04T11:22:38;3.10;;;1.63;;
63930;SDS011;50111;48.114;-2.066;2022-08-04T11:25:07;5.45;;;1.80;;
63930;SDS011;50111;48.114;-2.066;2022-08-04T11:30:07;2.83;;;1.42;;
63930;SDS011;50111;48.114;-2.066;2022-08-04T11:35:01;3.83;;;1.60;;
63930;SDS011;50111;48.114;-2.066;2022-08-04T11:37:48;2.70;;;1.48;;
63930;SDS011;50111;48.114;-2.066;2022-08-04T11:40:19;4.57;;;1.63;;
63930;SDS011;50111;48.114;-2.066;2022-08-04T11:42:57;3.63;;;1.60;;
63930;SDS011;50111;48.114;-2.066;2022-08-04T11:45:40;3.65;;;1.52;;
63930;SDS011;50111;48.114;-2.066;2022-08-04T11:48:10;7.80;;;1.60;;
63930;SDS011;50111;48.114;-2.066;2022-08-04T11:50:44;3.23;;;1.70;;
63930;SDS011;50111;48.114;-2.066;2022-08-04T11:53:13;3.38;;;1.55;;
63930;SDS011;50111;48.114;-2.066;2022-08-04T11:55:40;4.97;;;1.70;;
63930;SDS011;50111;48.114;-2.066;2022-08-04T11:58:07;3.72;;;1.58;;
63930;SDS011;50111;48.114;-2.066;2022-08-04T12:00:33;5.80;;;2.08;;
63930;SDS011;50111;48.114;-2.066;2022-08-04T12:03:22;5.20;;;2.00;;
63930;SDS011;50111;48.114;-2.066;2022-08-04T12:16:29;3.95;;;1.70;;
63930;SDS011;50111;48.114;-2.066;2022-08-04T12:18:57;4.00;;;2.20;;
63930;SDS011;50111;48.114;-2.066;2022-08-04T12:23:57;5.70;;;2.40;;
63930;SDS011;50111;48.114;-2.066;2022-08-04T12:26:27;4.45;;;2.42;;
63930;SDS011;50111;48.114;-2.066;2022-08-04T12:29:00;7.75;;;2.10;;
63930;SDS011;50111;48.114;-2.066;2022-08-04T12:31:27;6.97;;;2.30;;
63930;SDS011;50111;48.114;-2.066;2022-08-04T12:33:58;7.65;;;2.25;;
63930;SDS011;50111;48.114;-2.066;2022-08-04T12:39:10;3.72;;;2.00;;
63930;SDS011;50111;48.114;-2.066;2022-08-04T12:42:00;5.20;;;2.28;;
63930;SDS011;50111;48.114;-2.066;2022-08-04T12:44:23;7.70;;;2.40;;
63930;SDS011;50111;48.114;-2.066;2022-08-04T12:46:50;6.60;;;2.40;;
63930;SDS011;50111;48.114;-2.066;2022-08-04T12:49:16;10.18;;;2.45;;
63930;SDS011;50111;48.114;-2.066;2022-08-04T12:51:43;3.92;;;2.00;;
63930;SDS011;50111;48.114;-2.066;2022-08-04T12:54:10;5.40;;;1.98;;
63930;SDS011;50111;48.114;-2.066;2022-08-04T12:56:36;7.65;;;2.42;;
63930;SDS011;50111;48.114;-2.066;2022-08-04T12:59:07;6.57;;;2.42;;
63930;SDS011;50111;48.114;-2.066;2022-08-04T13:01:34;7.82;;;2.17;;
63930;SDS011;50111;48.114;-2.066;2022-08-04T13:06:31;7.10;;;2.17;;
63930;SDS011;50111;48.114;-2.066;2022-08-04T13:09:03;5.45;;;2.58;;
63930;SDS011;50111;48.114;-2.066;2022-08-04T13:11:29;5.90;;;2.03;;
63930;SDS011;50111;48.114;-2.066;2022-08-04T13:13:59;6.18;;;2.20;;
63930;SDS011;50111;48.114;-2.066;2022-08-04T13:16:31;7.15;;;2.40;;
63930;SDS011;50111;48.114;-2.066;2022-08-04T13:18:58;5.40;;;1.95;;
63930;SDS011;50111;48.114;-2.066;2022-08-04T13:21:25;3.97;;;1.98;;
63930;SDS011;50111;48.114;-2.066;2022-08-04T13:23:54;5.50;;;1.98;;
63930;SDS011;50111;48.114;-2.066;2022-08-04T13:26:22;8.07;;;2.45;;
63930;SDS011;50111;48.114;-2.066;2022-08-04T13:28:49;7.53;;;2.72;;
63930;SDS011;50111;48.114;-2.066;2022-08-04T13:31:18;8.55;;;2.50;;
63930;SDS011;50111;48.114;-2.066;2022-08-04T13:33:52;6.95;;;2.20;;
63930;SDS011;50111;48.114;-2.066;2022-08-04T13:36:22;8.25;;;2.70;;
63930;SDS011;50111;48.114;-2.066;2022-08-04T13:38:50;5.35;;;2.17;;
63930;SDS011;50111;48.114;-2.066;2022-08-04T13:41:17;7.88;;;2.50;;
63930;SDS011;50111;48.114;-2.066;2022-08-04T13:43:46;8.73;;;2.25;;
63930;SDS011;50111;48.114;-2.066;2022-08-04T13:46:19;7.85;;;2.65;;
63930;SDS011;50111;48.114;-2.066;2022-08-04T13:48:46;7.18;;;2.28;;
63930;SDS011;50111;48.114;-2.066;2022-08-04T13:51:14;6.45;;;2.33;;
63930;SDS011;50111;48.114;-2.066;2022-08-04T13:53:42;5.80;;;2.17;;
63930;SDS011;50111;48.114;-2.066;2022-08-04T13:56:08;9.70;;;2.97;;
63930;SDS011;50111;48.114;-2.066;2022-08-04T13:58:38;5.78;;;1.98;;
63930;SDS011;50111;48.114;-2.066;2022-08-04T14:01:08;4.85;;;1.88;;
63930;SDS011;50111;48.114;-2.066;2022-08-04T14:03:36;5.18;;;1.75;;
63930;SDS011;50111;48.114;-2.066;2022-08-04T14:06:07;9.50;;;2.05;;
63930;SDS011;50111;48.114;-2.066;2022-08-04T14:08:35;5.35;;;1.90;;
63930;SDS011;50111;48.114;-2.066;2022-08-04T14:11:06;5.38;;;1.90;;
63930;SDS011;50111;48.114;-2.066;2022-08-04T14:13:33;4.95;;;2.00;;
63930;SDS011;50111;48.114;-2.066;2022-08-04T14:16:00;6.25;;;2.28;;
63930;SDS011;50111;48.114;-2.066;2022-08-04T14:18:30;4.00;;;1.98;;
63930;SDS011;50111;48.114;-2.066;2022-08-04T14:23:28;7.70;;;2.10;;
63930;SDS011;50111;48.114;-2.066;2022-08-04T14:25:55;4.32;;;1.40;;
63930;SDS011;50111;48.114;-2.066;2022-08-04T14:28:30;5.43;;;2.20;;
63930;SDS011;50111;48.114;-2.066;2022-08-04T14:31:16;5.32;;;1.45;;
63930;SDS011;50111;48.114;-2.066;2022-08-04T14:33:43;5.75;;;1.60;;
63930;SDS011;50111;48.114;-2.066;2022-08-04T14:36:09;3.88;;;1.50;;
63930;SDS011;50111;48.114;-2.066;2022-08-04T14:38:49;7.43;;;1.75;;
63930;SDS011;50111;48.114;-2.066;2022-08-04T14:41:18;5.43;;;1.33;;
63930;SDS011;50111;48.114;-2.066;2022-08-04T14:43:51;4.47;;;1.60;;
63930;SDS011;50111;48.114;-2.066;2022-08-04T14:46:18;5.47;;;1.45;;
63930;SDS011;50111;48.114;-2.066;2022-08-04T14:49:01;3.40;;;1.38;;
63930;SDS011;50111;48.114;-2.066;2022-08-04T14:51:27;2.13;;;1.25;;
63930;SDS011;50111;48.114;-2.066;2022-08-04T14:53:58;6.78;;;1.52;;
63930;SDS011;50111;48.114;-2.066;2022-08-04T14:56:24;3.85;;;1.38;;
63930;SDS011;50111;48.114;-2.066;2022-08-04T14:58:57;3.40;;;1.17;;
63930;SDS011;50111;48.114;-2.066;2022-08-04T15:01:23;3.58;;;1.55;;
63930;SDS011;50111;48.114;-2.066;2022-08-04T15:03:49;4.05;;;1.17;;
63930;SDS011;50111;48.114;-2.066;2022-08-04T15:06:15;3.35;;;1.10;;
63930;SDS011;50111;48.114;-2.066;2022-08-04T15:08:41;4.68;;;1.20;;
63930;SDS011;50111;48.114;-2.066;2022-08-04T15:11:08;2.78;;;1.10;;
63930;SDS011;50111;48.114;-2.066;2022-08-04T15:13:34;3.33;;;1.30;;
63930;SDS011;50111;48.114;-2.066;2022-08-04T15:16:02;5.75;;;1.50;;
63930;SDS011;50111;48.114;-2.066;2022-08-04T15:18:28;3.58;;;1.35;;
63930;SDS011;50111;48.114;-2.066;2022-08-04T15:20:54;6.30;;;1.30;;
63930;SDS011;50111;48.114;-2.066;2022-08-04T15:23:21;3.85;;;1.30;;
63930;SDS011;50111;48.114;-2.066;2022-08-04T15:25:52;5.75;;;1.58;;
63930;SDS011;50111;48.114;-2.066;2022-08-04T15:28:20;5.00;;;1.65;;
63930;SDS011;50111;48.114;-2.066;2022-08-04T15:30:49;6.18;;;1.55;;
63930;SDS011;50111;48.114;-2.066;2022-08-04T15:33:16;3.30;;;1.50;;
63930;SDS011;50111;48.114;-2.066;2022-08-04T15:35:48;4.65;;;1.13;;
63930;SDS011;50111;48.114;-2.066;2022-08-04T15:38:15;5.10;;;1.73;;
63930;SDS011;50111;48.114;-2.066;2022-08-04T15:46:11;6.13;;;1.20;;
63930;SDS011;50111;48.114;-2.066;2022-08-04T15:48:38;2.97;;;1.10;;
63930;SDS011;50111;48.114;-2.066;2022-08-04T15:51:05;6.13;;;1.45;;
63930;SDS011;50111;48.114;-2.066;2022-08-04T15:55:58;3.90;;;1.40;;
63930;SDS011;50111;48.114;-2.066;2022-08-04T15:58:24;2.35;;;1.25;;
63930;SDS011;50111;48.114;-2.066;2022-08-04T16:03:52;4.38;;;1.45;;
63930;SDS011;50111;48.114;-2.066;2022-08-04T16:16:29;3.70;;;1.10;;
63930;SDS011;50111;48.114;-2.066;2022-08-04T16:21:46;2.53;;;0.98;;
63930;SDS011;50111;48.114;-2.066;2022-08-04T16:24:16;3.30;;;1.30;;
63930;SDS011;50111;48.114;-2.066;2022-08-04T16:26:44;4.70;;;1.20;;
63930;SDS011;50111;48.114;-2.066;2022-08-04T16:34:30;5.57;;;1.45;;
63930;SDS011;50111;48.114;-2.066;2022-08-04T16:37:06;3.65;;;1.10;;
63930;SDS011;50111;48.114;-2.066;2022-08-04T16:39:32;5.72;;;1.20;;
63930;SDS011;50111;48.114;-2.066;2022-08-04T16:41:58;2.25;;;1.00;;
63930;SDS011;50111;48.114;-2.066;2022-08-04T16:44:31;3.80;;;1.20;;
63930;SDS011;50111;48.114;-2.066;2022-08-04T16:47:00;6.88;;;1.40;;
63930;SDS011;50111;48.114;-2.066;2022-08-04T16:49:27;5.13;;;1.65;;
63930;SDS011;50111;48.114;-2.066;2022-08-04T16:51:54;3.38;;;1.00;;
63930;SDS011;50111;48.114;-2.066;2022-08-04T16:54:20;7.07;;;1.35;;
63930;SDS011;50111;48.114;-2.066;2022-08-04T16:56:47;1.00;;;0.82;;
63930;SDS011;50111;48.114;-2.066;2022-08-04T16:59:13;2.80;;;1.02;;
63930;SDS011;50111;48.114;-2.066;2022-08-04T17:01:49;5.93;;;1.63;;
63930;SDS011;50111;48.114;-2.066;2022-08-04T17:04:15;5.90;;;1.10;;
63930;SDS011;50111;48.114;-2.066;2022-08-04T17:06:42;2.10;;;1.10;;
63930;SDS011;50111;48.114;-2.066;2022-08-04T17:09:16;2.67;;;1.33;;
63930;SDS011;50111;48.114;-2.066;2022-08-04T17:11:45;2.22;;;1.10;;
63930;SDS011;50111;48.114;-2.066;2022-08-04T17:14:11;2.90;;;1.23;;
63930;SDS011;50111;48.114;-2.066;2022-08-04T17:16:39;3.00;;;1.20;;
63930;SDS011;50111;48.114;-2.066;2022-08-04T17:19:05;3.15;;;1.15;;
63930;SDS011;50111;48.114;-2.066;2022-08-04T17:21:33;3.63;;;1.13;;
63930;SDS011;50111;48.114;-2.066;2022-08-04T17:24:00;5.03;;;1.30;;
63930;SDS011;50111;48.114;-2.066;2022-08-04T17:26:28;3.25;;;0.93;;
63930;SDS011;50111;48.114;-2.066;2022-08-04T17:28:54;3.47;;;1.20;;
63930;SDS011;50111;48.114;-2.066;2022-08-04T17:31:21;5.20;;;1.33;;
63930;SDS011;50111;48.114;-2.066;2022-08-04T17:33:51;2.92;;;1.08;;
63930;SDS011;50111;48.114;-2.066;2022-08-04T17:36:21;4.93;;;1.30;;
63930;SDS011;50111;48.114;-2.066;2022-08-04T17:38:48;3.38;;;1.25;;
63930;SDS011;50111;48.114;-2.066;2022-08-04T17:41:18;2.70;;;1.33;;
63930;SDS011;50111;48.114;-2.066;2022-08-04T17:48:41;4.80;;;1.40;;
63930;SDS011;50111;48.114;-2.066;2022-08-04T17:51:13;5.95;;;1.08;;
63930;SDS011;50111;48.114;-2.066;2022-08-04T17:53:40;4.13;;;1.42;;
63930;SDS011;50111;48.114;-2.066;2022-08-04T17:56:29;5.05;;;1.20;;
63930;SDS011;50111;48.114;-2.066;2022-08-04T18:01:56;4.25;;;1.52;;
63930;SDS011;50111;48.114;-2.066;2022-08-04T18:06:52;7.90;;;2.00;;
63930;SDS011;50111;48.114;-2.066;2022-08-04T18:09:25;4.20;;;1.52;;
63930;SDS011;50111;48.114;-2.066;2022-08-04T18:12:00;6.40;;;1.40;;
63930;SDS011;50111;48.114;-2.066;2022-08-04T18:14:36;3.78;;;1.45;;
63930;SDS011;50111;48.114;-2.066;2022-08-04T18:17:03;4.53;;;1.42;;
63930;SDS011;50111;48.114;-2.066;2022-08-04T18:19:29;6.43;;;1.75;;
63930;SDS011;50111;48.114;-2.066;2022-08-04T18:21:56;3.85;;;1.67;;
63930;SDS011;50111;48.114;-2.066;2022-08-04T18:24:22;3.47;;;1.40;;
63930;SDS011;50111;48.114;-2.066;2022-08-04T18:26:48;4.25;;;1.42;;
63930;SDS011;50111;48.114;-2.066;2022-08-04T18:29:14;5.65;;;1.48;;
63930;SDS011;50111;48.114;-2.066;2022-08-04T18:31:40;3.45;;;1.58;;
63930;SDS011;50111;48.114;-2.066;2022-08-04T18:34:06;5.63;;;1.90;;
63930;SDS011;50111;48.114;-2.066;2022-08-04T18:36:33;6.63;;;1.77;;
63930;SDS011;50111;48.114;-2.066;2022-08-04T18:39:00;3.80;;;1.50;;
63930;SDS011;50111;48.114;-2.066;2022-08-04T18:41:26;2.70;;;1.50;;
63930;SDS011;50111;48.114;-2.066;2022-08-04T18:43:53;2.97;;;1.55;;
63930;SDS011;50111;48.114;-2.066;2022-08-04T18:46:19;3.80;;;1.45;;
63930;SDS011;50111;48.114;-2.066;2022-08-04T18:48:45;2.20;;;1.27;;
63930;SDS011;50111;48.114;-2.066;2022-08-04T18:51:11;3.85;;;1.48;;
63930;SDS011;50111;48.114;-2.066;2022-08-04T18:53:37;3.58;;;1.27;;
63930;SDS011;50111;48.114;-2.066;2022-08-04T18:56:03;7.97;;;1.60;;
63930;SDS011;50111;48.114;-2.066;2022-08-04T18:58:30;2.88;;;1.40;;
63930;SDS011;50111;48.114;-2.066;2022-08-04T19:00:56;3.38;;;1.63;;
63930;SDS011;50111;48.114;-2.066;2022-08-04T19:03:22;4.95;;;1.38;;
63930;SDS011;50111;48.114;-2.066;2022-08-04T19:05:48;3.85;;;1.27;;
63930;SDS011;50111;48.114;-2.066;2022-08-04T19:08:14;4.97;;;1.45;;
63930;SDS011;50111;48.114;-2.066;2022-08-04T19:10:40;4.20;;;1.45;;
63930;SDS011;50111;48.114;-2.066;2022-08-04T19:13:06;2.40;;;1.15;;
63930;SDS011;50111;48.114;-2.066;2022-08-04T19:15:32;2.63;;;1.13;;
63930;SDS011;50111;48.114;-2.066;2022-08-04T19:17:58;4.78;;;1.45;;
63930;SDS011;50111;48.114;-2.066;2022-08-04T19:20:24;2.85;;;1.50;;
63930;SDS011;50111;48.114;-2.066;2022-08-04T19:22:50;3.05;;;1.13;;
63930;SDS011;50111;48.114;-2.066;2022-08-04T19:25:16;1.95;;;1.05;;
63930;SDS011;50111;48.114;-2.066;2022-08-04T19:27:43;5.35;;;1.10;;
63930;SDS011;50111;48.114;-2.066;2022-08-04T19:30:09;3.88;;;0.90;;
63930;SDS011;50111;48.114;-2.066;2022-08-04T19:32:35;4.38;;;1.38;;
63930;SDS011;50111;48.114;-2.066;2022-08-04T19:35:01;3.28;;;1.20;;
63930;SDS011;50111;48.114;-2.066;2022-08-04T19:37:27;3.38;;;1.25;;
63930;SDS011;50111;48.114;-2.066;2022-08-04T19:39:53;3.88;;;1.33;;
63930;SDS011;50111;48.114;-2.066;2022-08-04T19:42:19;5.40;;;1.40;;
63930;SDS011;50111;48.114;-2.066;2022-08-04T19:44:45;1.63;;;0.95;;
63930;SDS011;50111;48.114;-2.066;2022-08-04T19:47:11;3.13;;;1.13;;
63930;SDS011;50111;48.114;-2.066;2022-08-04T19:49:37;2.00;;;1.10;;
63930;SDS011;50111;48.114;-2.066;2022-08-04T19:52:03;2.58;;;1.20;;
63930;SDS011;50111;48.114;-2.066;2022-08-04T19:54:31;2.30;;;1.15;;